sensor_id;sensor_type;location;lat;lon;timestamp;P1;P2;P0
77354;PMS7003;66422;51.202;19.936;2023-12-14T00:14:44;93.00;60.00;38.00
77354;PMS7003;66422;51.202;19.936;2023-12-14T00:30:04;89.00;64.00;39.00
77354;PMS7003;66422;51.202;19.936;2023-12-14T00:45:24;84.50;61.50;34.00
77354;PMS7003;66422;51.202;19.936;2023-12-14T01:00:43;92.50;64.50;38.00
77354;PMS7003;66422;51.202;19.936;2023-12-14T01:16:03;97.50;64.00;36.00
77354;PMS7003;66422;51.202;19.936;2023-12-14T01:31:23;95.00;60.00;36.00
77354;PMS7003;66422;51.202;19.936;2023-12-14T01:46:43;81.00;59.00;32.00
77354;PMS7003;66422;51.202;19.936;2023-12-14T02:02:03;89.00;61.00;36.00
77354;PMS7003;66422;51.202;19.936;2023-12-14T02:17:24;91.67;62.00;36.00
77354;PMS7003;66422;51.202;19.936;2023-12-14T02:32:44;89.33;58.00;33.67
77354;PMS7003;66422;51.202;19.936;2023-12-14T02:48:04;77.00;55.00;33.67
77354;PMS7003;66422;51.202;19.936;2023-12-14T03:03:24;86.00;57.50;32.50
77354;PMS7003;66422;51.202;19.936;2023-12-14T03:18:44;66.00;48.00;31.00
77354;PMS7003;66422;51.202;19.936;2023-12-14T03:34:05;70.00;48.00;28.00
77354;PMS7003;66422;51.202;19.936;2023-12-14T03:49:25;69.00;46.00;29.00
77354;PMS7003;66422;51.202;19.936;2023-12-14T04:04:44;47.00;41.00;28.00
77354;PMS7003;66422;51.202;19.936;2023-12-14T04:20:06;75.00;50.00;31.00
77354;PMS7003;66422;51.202;19.936;2023-12-14T04:35:26;73.50;46.00;25.50
77354;PMS7003;66422;51.202;19.936;2023-12-14T04:50:46;74.00;43.00;27.00
77354;PMS7003;66422;51.202;19.936;2023-12-14T05:06:06;67.00;42.50;25.00
77354;PMS7003;66422;51.202;19.936;2023-12-14T05:21:26;67.00;44.00;24.00
77354;PMS7003;66422;51.202;19.936;2023-12-14T05:36:46;50.50;41.00;26.00
77354;PMS7003;66422;51.202;19.936;2023-12-14T05:52:05;61.67;41.67;23.00
77354;PMS7003;66422;51.202;19.936;2023-12-14T06:07:26;49.00;32.00;19.00
77354;PMS7003;66422;51.202;19.936;2023-12-14T06:22:46;28.00;21.00;16.00
77354;PMS7003;66422;51.202;19.936;2023-12-14T06:38:05;44.67;33.33;21.67
77354;PMS7003;66422;51.202;19.936;2023-12-14T06:53:25;38.00;32.00;23.00
77354;PMS7003;66422;51.202;19.936;2023-12-14T07:08:45;48.00;36.00;25.00
77354;PMS7003;66422;51.202;19.936;2023-12-14T07:24:05;42.00;35.00;28.00
77354;PMS7003;66422;51.202;19.936;2023-12-14T07:39:25;32.67;15.33;1.67
77354;PMS7003;66422;51.202;19.936;2023-12-14T07:54:45;62.00;42.00;28.00
77354;PMS7003;66422;51.202;19.936;2023-12-14T08:10:05;51.00;38.00;25.50
77354;PMS7003;66422;51.202;19.936;2023-12-14T08:25:24;56.00;40.00;23.00
77354;PMS7003;66422;51.202;19.936;2023-12-14T08:40:45;41.50;22.00;15.00
77354;PMS7003;66422;51.202;19.936;2023-12-14T08:56:05;40.33;29.00;19.00
77354;PMS7003;66422;51.202;19.936;2023-12-14T09:11:25;43.00;30.50;20.50
77354;PMS7003;66422;51.202;19.936;2023-12-14T09:26:44;31.67;24.33;16.33
77354;PMS7003;66422;51.202;19.936;2023-12-14T09:42:04;29.00;18.50;15.00
77354;PMS7003;66422;51.202;19.936;2023-12-14T09:57:27;44.00;25.00;16.00
77354;PMS7003;66422;51.202;19.936;2023-12-14T10:12:53;39.67;29.33;18.67
77354;PMS7003;66422;51.202;19.936;2023-12-14T10:28:13;30.50;15.00;8.50
77354;PMS7003;66422;51.202;19.936;2023-12-14T10:43:35;34.50;22.50;11.50
77354;PMS7003;66422;51.202;19.936;2023-12-14T10:58:56;34.50;21.50;14.50
77354;PMS7003;66422;51.202;19.936;2023-12-14T11:14:17;30.00;20.00;18.00
77354;PMS7003;66422;51.202;19.936;2023-12-14T11:29:38;36.67;29.67;21.00
77354;PMS7003;66422;51.202;19.936;2023-12-14T11:44:59;50.00;34.50;21.00
77354;PMS7003;66422;51.202;19.936;2023-12-14T12:00:22;31.00;18.00;12.00
77354;PMS7003;66422;51.202;19.936;2023-12-14T12:15:43;44.00;31.00;20.00
77354;PMS7003;66422;51.202;19.936;2023-12-14T12:31:04;38.00;30.00;20.00
77354;PMS7003;66422;51.202;19.936;2023-12-14T12:46:24;61.00;42.00;26.00
77354;PMS7003;66422;51.202;19.936;2023-12-14T13:01:43;51.00;37.00;20.00
77354;PMS7003;66422;51.202;19.936;2023-12-14T13:17:04;61.00;46.00;28.00
77354;PMS7003;66422;51.202;19.936;2023-12-14T13:32:24;47.00;35.00;24.00
77354;PMS7003;66422;51.202;19.936;2023-12-14T13:47:43;57.00;35.00;20.00
77354;PMS7003;66422;51.202;19.936;2023-12-14T14:03:04;40.00;34.50;20.00
77354;PMS7003;66422;51.202;19.936;2023-12-14T14:18:24;57.00;34.50;21.50
77354;PMS7003;66422;51.202;19.936;2023-12-14T14:33:44;60.00;41.00;21.00
77354;PMS7003;66422;51.202;19.936;2023-12-14T14:49:06;55.50;39.50;23.00
77354;PMS7003;66422;51.202;19.936;2023-12-14T15:04:27;51.00;33.50;22.00
77354;PMS7003;66422;51.202;19.936;2023-12-14T15:19:46;51.00;42.00;28.00
77354;PMS7003;66422;51.202;19.936;2023-12-14T15:35:06;49.00;38.67;25.33
77354;PMS7003;66422;51.202;19.936;2023-12-14T15:50:27;61.00;41.00;22.00
77354;PMS7003;66422;51.202;19.936;2023-12-14T16:05:47;65.00;43.00;26.33
77354;PMS7003;66422;51.202;19.936;2023-12-14T16:21:07;67.00;46.00;29.00
77354;PMS7003;66422;51.202;19.936;2023-12-14T16:36:28;63.00;47.00;29.00
77354;PMS7003;66422;51.202;19.936;2023-12-14T16:51:48;62.00;42.00;26.00
77354;PMS7003;66422;51.202;19.936;2023-12-14T17:07:07;77.00;44.00;28.00
77354;PMS7003;66422;51.202;19.936;2023-12-14T17:22:27;73.00;50.00;26.00
77354;PMS7003;66422;51.202;19.936;2023-12-14T17:37:48;66.00;44.00;29.00
77354;PMS7003;66422;51.202;19.936;2023-12-14T17:53:07;57.00;41.00;24.00
77354;PMS7003;66422;51.202;19.936;2023-12-14T18:08:27;68.00;47.00;29.00
77354;PMS7003;66422;51.202;19.936;2023-12-14T18:23:47;76.50;43.50;28.00
77354;PMS7003;66422;51.202;19.936;2023-12-14T18:39:07;71.00;45.50;28.00
77354;PMS7003;66422;51.202;19.936;2023-12-14T18:54:27;68.00;48.50;28.50
77354;PMS7003;66422;51.202;19.936;2023-12-14T19:09:47;60.00;43.33;27.33
77354;PMS7003;66422;51.202;19.936;2023-12-14T19:25:07;59.00;38.00;23.00
77354;PMS7003;66422;51.202;19.936;2023-12-14T19:40:29;46.00;28.00;17.50
77354;PMS7003;66422;51.202;19.936;2023-12-14T19:55:49;45.33;27.00;15.33
77354;PMS7003;66422;51.202;19.936;2023-12-14T20:11:14;56.00;39.00;22.00
77354;PMS7003;66422;51.202;19.936;2023-12-14T20:26:34;52.33;32.67;17.67
77354;PMS7003;66422;51.202;19.936;2023-12-14T20:41:54;57.00;34.00;20.00
77354;PMS7003;66422;51.202;19.936;2023-12-14T20:57:13;44.00;35.50;23.00
77354;PMS7003;66422;51.202;19.936;2023-12-14T21:12:33;44.00;30.00;19.50
77354;PMS7003;66422;51.202;19.936;2023-12-14T21:27:53;38.00;22.00;12.00
77354;PMS7003;66422;51.202;19.936;2023-12-14T21:43:16;63.00;38.50;19.50
77354;PMS7003;66422;51.202;19.936;2023-12-14T21:58:36;34.00;19.00;13.00
77354;PMS7003;66422;51.202;19.936;2023-12-14T22:13:56;41.00;28.50;19.00
77354;PMS7003;66422;51.202;19.936;2023-12-14T22:29:15;44.50;24.50;16.00
77354;PMS7003;66422;51.202;19.936;2023-12-14T22:44:35;38.33;21.00;11.33
77354;PMS7003;66422;51.202;19.936;2023-12-14T22:59:55;44.33;30.67;19.00
77354;PMS7003;66422;51.202;19.936;2023-12-14T23:15:14;50.00;34.67;19.67
77354;PMS7003;66422;51.202;19.936;2023-12-14T23:30:34;56.00;35.25;23.50
77354;PMS7003;66422;51.202;19.936;2023-12-14T23:45:54;45.50;33.50;19.00
